Nearby METAR Reports

 

KSJC - San Jose, California, USA
Distance from station: NE 9mi, 14km
Updated: Thu, 20-Jan-2022 11:53am PST
Few Clouds
Few Clouds
 Wind from NNW
Wind: NNW 6 mph , 9 km/h
Temperature: 59°F , 15°C
Dew Point: 48°F , 9°C
Humidity: 68%
Barometer: 30.34 inHg , 1027.4 hPa
Clouds: Few Clouds
Visibility: 10 miles , 16 km
Cloud details: Few Clouds 10000 ft
2022/01/20 19:53 KSJC 201953Z 33005KT 10SM FEW100 15/09 A3034 RMK AO2 SLP274 T01500089
KRHV - San Jose/Reid, California, USA
Distance from station: ENE 12mi, 19km
Updated: Thu, 20-Jan-2022 11:50am PST
Clear
Clear
 Wind from NW
Wind: NW 7 mph , 11 km/h
Temperature: 59°F , 15°C
Dew Point: 46°F , 8°C
Humidity: 63%
Barometer: 30.35 inHg , 1027.8 hPa
Clouds: Clear
Visibility: 10 miles , 16 km
2022/01/20 19:50 KRHV 201950Z 31006KT 10SM SKC 15/08 A3035
 
KPAO - Palo Alto, California, USA
Distance from station: NNW 14mi, 23km
Updated: Wed, 19-Jan-2022 2:47pm PST
NOT Current
Clear
Clear
 Wind from NNW
Wind: NNW 9 mph , 15 km/h
Temperature: 59°F , 15°C
Dew Point: 46°F , 8°C
Humidity: 63%
Barometer: 30.21 inHg , 1023 hPa
Clouds: Clear
Visibility: 10 miles , 16 km
2022/01/19 22:47 KPAO 192247Z 33008KT 10SM SKC 15/08 A3021
KSQL - San Carlos Airpo, California, USA
Distance from station: NW 21mi, 34km
Updated: Thu, 20-Jan-2022 10:47am PST
Fog, Clear
Fog, Clear
 Wind from calm
Wind: Calm
Temperature: 48°F , 9°C
Dew Point: 48°F , 9°C
Humidity: 100%
Barometer: 30.38 inHg , 1028.8 hPa
Summary: Fog
Clouds: Clear
Visibility: 1/2 mile , 0.8 km
2022/01/20 18:47 KSQL 201847Z 00000KT 1/2SM FG CLR 09/09 A3038
 
KE16 - San Martin, California, USA
Distance from station: ESE 27mi, 43km
Updated: Thu, 20-Jan-2022 11:30am PST
Clear
Clear
 Wind from NW
Wind: NW 5 mph , 7 km/h
Temperature: 57°F , 14°C
Dew Point: 46°F , 8°C
Humidity: 67%
Barometer: 30.35 inHg , 1027.8 hPa
Clouds: Clear
Visibility: 10 miles , 16 km
2022/01/20 19:30 KE16 201930Z AUTO 31004KT 10SM CLR 14/08 A3035 RMK AO2 PWINO PNO
KWVI - Watsonville, California, USA
Distance from station: SSE 27mi, 44km
Updated: Thu, 20-Jan-2022 11:53am PST
Clear
Clear
 Wind from S
Wind: S 3 mph , 6 km/h
Temperature: 63°F , 17°C
Dew Point: 48°F , 9°C
Humidity: 59%
Barometer: 30.32 inHg , 1026.8 hPa
Clouds: Clear
Visibility: 10 miles , 16 km
2022/01/20 19:53 KWVI 201953Z AUTO 19003KT 10SM CLR 17/09 A3032 RMK AO2 SLP266 T01720089
 
KHWD - Hayward, California, USA
Distance from station: N 28mi, 44km
Updated: Thu, 20-Jan-2022 11:54am PST
Mist, Mostly cloudy
Mist, Mostly cloudy
 Wind from W
Wind: W 5 mph , 7 km/h
Temperature: 52°F , 11°C
Dew Point: 48°F , 9°C
Humidity: 88%
Barometer: 30.34 inHg , 1027.4 hPa
Summary: Mist
Clouds: Mostly cloudy
Visibility: 4 miles , 6 km
Cloud details: Mostly cloudy 200 ft
2022/01/20 19:54 KHWD 201954Z 28004KT 4SM BR BKN002 11/09 A3034 RMK AO2 SLP284 T01110094
KSFO - San Francisco, California, USA
Distance from station: NW 30mi, 49km
Updated: Thu, 20-Jan-2022 11:53am PST
Partly cloudy
Partly cloudy
 Wind from calm
Wind: Calm
Temperature: 48°F , 9°C
Dew Point: 48°F , 9°C
Humidity: 100%
Barometer: 30.34 inHg , 1027.4 hPa
Clouds: Partly cloudy
Visibility: 4 miles , 6 km
Cloud details: Partly cloudy 300 ft
2022/01/20 19:53 KSFO 201953Z 00000KT 4SM SCT003 09/09 A3034 RMK AO2
 
KHAF - Half Moon Bay, California, USA
Distance from station: WNW 31mi, 50km
Updated: Thu, 20-Jan-2022 11:55am PST
Clear
Clear
 Wind from NW
Wind: NW 12 mph , 19 km/h
Temperature: 59°F , 15°C
Dew Point: 54°F , 12°C
Humidity: 82%
Barometer: 30.32 inHg , 1026.8 hPa
Clouds: Clear
Visibility: 8 miles , 13 km
2022/01/20 19:55 KHAF 201955Z AUTO 32010KT 8SM CLR 15/12 A3032 RMK AO2
KLVK - Livermore, California, USA
Distance from station: NNE 31mi, 51km
Updated: Thu, 20-Jan-2022 11:53am PST
Clear
Clear
 Wind from calm
Wind: Calm
Temperature: 61°F , 16°C
Dew Point: 46°F , 8°C
Humidity: 59%
Barometer: 30.34 inHg , 1027.4 hPa
Clouds: Clear
Visibility: 10 miles , 16 km
2022/01/20 19:53 KLVK 201953Z 00000KT 10SM CLR 16/08 A3034 RMK AO2 SLP273 T01560083
 
KOAK - Oakland, California, USA
Distance from station: NNW 33mi, 53km
Updated: Thu, 20-Jan-2022 11:53am PST
Mist, Mostly cloudy
Mist, Mostly cloudy
 Wind from WNW
Wind: WNW 5 mph , 7 km/h
Temperature: 48°F , 9°C
Wind Chill: 46°F , 8°C
Dew Point: 48°F , 9°C
Humidity: 100%
Barometer: 30.36 inHg , 1028.1 hPa
Summary: Mist
Clouds: Mostly cloudy
Visibility: 3 miles , 5 km
Cloud details: Mostly cloudy 200 ft
2022/01/20 19:53 KOAK 201953Z 29004KT 3SM BR BKN002 09/09 A3036 RMK AO2 SLP279 T00940094
KCVH - Hollister Muni, California, USA
Distance from station: SE 42mi, 68km
Updated: Thu, 20-Jan-2022 11:55am PST
Clear
Clear
 Wind from calm
Wind: Calm
Temperature: 57°F , 14°C
Dew Point: 45°F , 7°C
Humidity: 63%
Barometer: 30.33 inHg , 1027.1 hPa
Clouds: Clear
Visibility: 10 miles , 16 km
2022/01/20 19:55 KCVH 201955Z AUTO 00000KT 10SM CLR 14/07 A3033 RMK A01
 
KSNS - Salinas, California, USA
Distance from station: SSE 48mi, 77km
Updated: Thu, 20-Jan-2022 11:53am PST
Clear
Clear
 Wind from ESE
Wind: ESE 6 mph , 9 km/h
Temperature: 63°F , 17°C
Dew Point: 45°F , 7°C
Humidity: 52%
Barometer: 30.30 inHg , 1026.1 hPa
Clouds: Clear
Visibility: 10 miles , 16 km
2022/01/20 19:53 KSNS 201953Z 12005KT 10SM CLR 17/07 A3030 RMK AO2 SLP270 T01720072
KMRY - Monterey, California, USA
Distance from station: SSE 49mi, 78km
Updated: Thu, 20-Jan-2022 11:54am PST
Clear
Clear
 Wind from N
Wind: N 7 mph , 11 km/h
Temperature: 66°F , 19°C
Dew Point: 43°F , 6°C
Humidity: 43%
Barometer: 30.31 inHg , 1026.4 hPa
Clouds: Clear
Visibility: 10 miles , 16 km
2022/01/20 19:54 KMRY 201954Z 01006KT 10SM CLR 19/06 A3031 RMK AO2 SLP276 T01940056
 
KCCR - Concord, California, USA
Distance from station: N 50mi, 81km
Updated: Thu, 20-Jan-2022 11:53am PST
Clear
Clear
 Wind from calm
Wind: Calm
Temperature: 55°F , 13°C
Dew Point: 46°F , 8°C
Humidity: 72%
Barometer: 30.35 inHg , 1027.8 hPa
Clouds: Clear
Visibility: 8 miles , 13 km
2022/01/20 19:53 KCCR 201953Z 00000KT 8SM CLR 13/08 A3035 RMK AO2 SLP263 T01330083